Little Rock, Illinois
Current Conditions -  °F | °C
As of 2:52 AM on Thursday 23 Oct 2014 (Local Time) from KARR Reporting Station
Haze Haze  
Wind Chill: 30°   Ceiling: Unl
Heat Index: 35°   Visibility: 5mi
Dew Point: 31°   Wind: 6mph
Humidity: 85%   Direction: 120°ESE
Pressure: 30.23"   Gusts: NA
Location:  41.6798°N, 88.537°W
Report Text: KARR 230752Z AUTO 12005KT 5SM BR CLR 02/M01 A3023 RMK AO2 SLP240 T00171006
Loading
Personal Weather Stations






























Interactive Weather Map
Tropical Storm Tracking
New forecast layout! Learn more

10-Day Weather Forecast

Advertisements
Track Severe Weather on mobile